Time;durP1;ratioP1;P1;durP2;ratioP2;P2;SDS_P1;SDS_P2;PMS_P1;PMS_P2;Temp;Humidity;BMP_temperature;BMP_pressure;BME280_temperature;BME280_humidity;BME280_pressure;Samples;Min_cycle;Max_cycle;Signal;HPM_P1;HPM_P2
2024/01/01 10:47:25;;;;;;;4.00;1.70;;;;;;;12.34;63.59;98216.53;5184209;27;20881;-89
2024/01/01 10:50:15;;;;;;;4.50;1.40;;;;;;;14.09;58.68;98233.78;5132833;27;40234;-88
2024/01/01 10:53:01;;;;;;;3.93;1.60;;;;;;;14.68;57.73;98260.53;5132685;27;41784;-89
2024/01/01 10:56:00;;;;;;;2.23;0.90;;;;;;;14.65;53.92;98300.78;5132570;27;43299;-89
2024/01/01 10:58:59;;;;;;;3.47;1.43;;;;;;;14.63;55.53;98228.97;5132220;27;41830;-91
2024/01/01 11:01:34;;;;;;;2.90;1.10;;;;;;;14.82;55.14;98238.00;5132908;27;40676;-88
2024/01/01 11:04:02;;;;;;;2.47;1.10;;;;;;;14.87;54.34;98241.91;5132424;27;40939;-90
2024/01/01 11:06:33;;;;;;;4.30;1.17;;;;;;;15.07;54.31;98286.31;5132735;27;42156;-92
2024/01/01 11:09:31;;;;;;;2.67;1.10;;;;;;;14.66;52.85;98228.69;5132944;27;41274;-91
2024/01/01 11:20:50;;;;;;;3.70;1.30;;;;;;;13.93;54.62;98229.78;5148256;27;42845;-87
2024/01/01 11:23:46;;;;;;;5.10;1.00;;;;;;;13.96;54.54;98256.16;5114579;27;40170;-91
2024/01/01 11:26:32;;;;;;;4.60;1.27;;;;;;;14.00;54.55;98262.03;5109264;27;42537;-89
2024/01/01 11:32:10;;;;;;;2.00;0.87;;;;;;;13.79;55.08;98232.78;5113572;27;41587;-90
2024/01/01 11:34:38;;;;;;;4.03;1.30;;;;;;;13.19;54.50;98197.09;5114469;27;39132;-90
2024/01/01 11:37:11;;;;;;;5.03;1.70;;;;;;;13.27;54.68;98250.47;5114376;27;41143;-89
2024/01/01 11:39:42;;;;;;;8.10;2.83;;;;;;;12.93;56.14;98228.47;5114870;27;43081;-91
2024/01/01 11:42:26;;;;;;;6.70;2.77;;;;;;;12.42;56.56;98204.31;5114495;27;41118;-89
2024/01/01 11:45:09;;;;;;;4.50;2.23;;;;;;;12.46;57.71;98252.72;5114624;27;38424;-88
2024/01/01 11:47:38;;;;;;;5.53;1.97;;;;;;;11.90;57.88;98204.09;5114364;27;41198;-90
2024/01/01 12:02:00;;;;;;;5.37;1.73;;;;;;;11.18;61.23;98199.00;5133335;27;42210;-90
2024/01/01 12:04:39;;;;;;;2.60;1.23;;;;;;;11.21;62.17;98211.19;5116855;27;43522;-87
2024/01/01 12:07:30;;;;;;;5.77;1.50;;;;;;;10.93;62.95;98186.75;5083728;27;41164;-89
2024/01/01 12:10:28;;;;;;;3.83;1.20;;;;;;;11.12;63.10;98216.22;5100359;27;38980;-86
2024/01/01 12:13:23;;;;;;;4.00;1.47;;;;;;;11.21;64.03;98217.31;5078674;27;44224;-89
2024/01/01 12:16:20;;;;;;;2.77;1.20;;;;;;;11.16;63.49;98220.31;5098869;27;41930;-88
2024/01/01 12:18:55;;;;;;;7.03;2.07;;;;;;;11.13;64.30;98214.38;5099409;27;44057;-89
2024/01/01 12:21:23;;;;;;;5.43;2.40;;;;;;;11.19;64.35;98215.75;5099098;27;40461;-89
2024/01/01 12:23:53;;;;;;;6.87;3.03;;;;;;;11.06;63.79;98182.22;5099730;27;41535;-89
2024/01/01 12:26:43;;;;;;;3.17;1.87;;;;;;;11.28;64.33;98191.19;5100217;27;44120;-92
2024/01/01 12:29:34;;;;;;;3.43;1.40;;;;;;;11.27;64.47;98184.19;5082330;27;42394;-88
2024/01/01 12:32:02;;;;;;;2.13;1.20;;;;;;;11.61;64.03;98220.44;5037358;28;38809;-90
2024/01/01 12:34:32;;;;;;;4.30;1.17;;;;;;;12.14;63.23;98218.09;5038206;28;40938;-90
2024/01/01 12:39:41;;;;;;;3.17;1.20;;;;;;;13.33;57.19;98213.72;5054145;28;42259;-89
2024/01/01 12:42:10;;;;;;;2.43;1.10;;;;;;;13.43;56.69;98228.78;5038840;28;39643;-91
2024/01/01 12:44:39;;;;;;;3.80;1.30;;;;;;;13.07;57.07;98191.94;5054553;28;43250;-90
2024/01/01 12:47:35;;;;;;;4.63;1.20;;;;;;;12.84;57.09;98209.78;5040611;28;41957;-92
2024/01/01 12:50:08;;;;;;;3.30;1.20;;;;;;;12.95;57.88;98244.28;5064017;27;41534;-91
2024/01/01 12:52:39;;;;;;;4.50;1.10;;;;;;;12.87;57.96;98246.72;5082698;27;38976;-90
2024/01/01 12:55:09;;;;;;;2.40;1.00;;;;;;;12.47;58.19;98178.25;5099707;27;41778;-91
2024/01/01 12:57:40;;;;;;;4.30;0.90;;;;;;;13.41;57.51;98227.19;5116562;27;43037;-90
2024/01/01 13:00:11;;;;;;;4.43;1.03;;;;;;;13.62;55.32;98247.50;5099152;27;41577;-92
2024/01/01 13:03:00;;;;;;;2.57;1.10;;;;;;;13.40;55.00;98214.88;5037392;28;39203;-90
2024/01/01 13:05:29;;;;;;;3.90;1.13;;;;;;;13.20;55.68;98188.16;5020652;28;40961;-91
2024/01/01 13:07:57;;;;;;;1.30;1.03;;;;;;;13.59;55.53;98249.63;5053908;28;41958;-89
2024/01/01 13:13:08;;;;;;;3.73;1.40;;;;;;;13.41;55.39;98243.16;5037355;28;39388;-90
2024/01/01 13:15:38;;;;;;;3.87;1.03;;;;;;;13.17;55.84;98252.22;5054090;28;40772;-90
2024/01/01 13:18:27;;;;;;;5.70;1.40;;;;;;;12.88;57.05;98243.09;5037930;28;45767;-92
2024/01/01 13:20:59;;;;;;;2.70;1.00;;;;;;;12.26;57.75;98179.94;5061372;27;42242;-90
2024/01/01 13:23:29;;;;;;;3.63;1.20;;;;;;;12.17;58.94;98201.94;5099108;27;40840;-89
2024/01/01 13:26:02;;;;;;;3.93;1.07;;;;;;;11.91;59.44;98179.25;5099051;27;44360;-91
2024/01/01 13:28:48;;;;;;;6.10;1.20;;;;;;;11.74;60.15;98194.69;5068742;27;42424;-89
2024/01/01 13:31:18;;;;;;;3.53;1.20;;;;;;;11.80;61.91;98210.13;5119990;27;41192;-90
2024/01/01 13:33:46;;;;;;;3.67;1.20;;;;;;;11.47;63.28;98202.09;5119593;27;39494;-89
2024/01/01 13:36:55;;;;;;;4.67;1.20;;;;;;;11.30;63.88;98205.19;5119171;27;41263;-91
2024/01/01 13:39:38;;;;;;;4.30;1.30;;;;;;;11.18;65.23;98206.09;5119071;27;42405;-88
2024/01/01 13:42:06;;;;;;;2.50;1.10;;;;;;;11.19;65.31;98198.03;5136411;27;42385;-90
2024/01/01 13:44:34;;;;;;;5.20;1.63;;;;;;;11.22;65.03;98216.38;5119384;27;39023;-90
2024/01/01 13:47:03;;;;;;;3.80;1.10;;;;;;;10.96;65.28;98165.31;5119283;27;42341;-88
2024/01/01 13:49:31;;;;;;;4.53;1.23;;;;;;;11.19;65.63;98207.78;5118405;27;43257;-90
2024/01/01 13:52:05;;;;;;;4.23;1.27;;;;;;;10.88;64.81;98165.03;5118888;27;43945;-91
2024/01/01 13:54:42;;;;;;;6.60;1.50;;;;;;;11.24;65.03;98221.56;5135919;27;39121;-88
2024/01/01 13:57:21;;;;;;;2.83;1.27;;;;;;;11.17;65.33;98199.97;5119577;27;41833;-90
2024/01/01 13:59:51;;;;;;;4.27;1.60;;;;;;;11.11;64.58;98219.84;5118816;27;42891;-90
2024/01/01 14:02:41;;;;;;;5.90;1.40;;;;;;;10.94;64.66;98196.38;5118721;27;41221;-92
2024/01/01 14:08:18;;;;;;;4.60;1.30;;;;;;;11.09;64.47;98242.09;5119008;27;43509;-89
2024/01/01 14:10:48;;;;;;;5.23;1.47;;;;;;;11.01;64.84;98237.34;5118986;27;43284;-87
2024/01/01 14:13:21;;;;;;;3.30;1.30;;;;;;;10.78;65.85;98219.66;5118193;27;42024;-90
2024/01/01 14:16:10;;;;;;;6.70;2.00;;;;;;;10.78;66.31;98230.25;5132385;27;39116;-91
2024/01/01 14:19:00;;;;;;;4.17;1.17;;;;;;;10.77;66.44;98245.28;5119049;27;42270;-91
2024/01/01 14:21:48;;;;;;;8.47;1.93;;;;;;;10.73;66.96;98237.72;5117999;27;42593;-88
2024/01/01 14:24:37;;;;;;;4.60;1.40;;;;;;;10.26;67.21;98175.78;5118896;27;41476;-88
2024/01/01 14:27:27;;;;;;;4.10;1.37;;;;;;;10.59;67.05;98240.50;5119227;27;40290;-87
2024/01/01 14:29:56;;;;;;;3.73;1.30;;;;;;;10.59;66.90;98245.81;5119140;27;41707;-89
2024/01/01 14:32:27;;;;;;;2.97;1.40;;;;;;;10.50;67.71;98241.19;5118256;27;43229;-90
2024/01/01 14:35:05;;;;;;;3.30;1.30;;;;;;;10.20;68.10;98202.69;5109878;27;43136;-89
2024/01/01 14:37:36;;;;;;;2.67;1.20;;;;;;;10.23;68.61;98239.53;5115142;27;41461;-90
2024/01/01 14:40:34;;;;;;;3.60;1.30;;;;;;;10.25;68.42;98253.50;5115025;27;41707;-90
2024/01/01 14:43:03;;;;;;;7.63;1.80;;;;;;;10.13;68.68;98241.13;5114970;27;41708;-87
2024/01/01 14:48:15;;;;;;;3.90;1.70;;;;;;;10.21;68.78;98259.97;5097242;27;40133;-89
2024/01/01 14:50:45;;;;;;;6.90;1.83;;;;;;;10.20;68.65;98263.56;5101379;27;41260;-91
2024/01/01 14:53:12;;;;;;;3.47;1.43;;;;;;;9.78;69.14;98214.47;5114739;27;42270;-88
2024/01/01 14:56:11;;;;;;;4.07;1.20;;;;;;;9.80;70.94;98230.22;5097652;27;41282;-89
2024/01/01 14:58:49;;;;;;;5.23;1.80;;;;;;;9.82;72.19;98249.47;5116170;27;39116;-89
2024/01/01 15:01:24;;;;;;;5.67;1.40;;;;;;;9.64;73.72;98241.84;5117950;27;43634;-89
2024/01/01 15:03:56;;;;;;;6.87;1.63;;;;;;;9.66;74.80;98255.81;5117791;27;43402;-91
2024/01/01 15:06:31;;;;;;;5.27;1.40;;;;;;;9.48;76.38;98251.78;5117664;27;42312;-91
2024/01/01 15:09:06;;;;;;;3.03;1.20;;;;;;;9.33;78.75;98236.97;5117783;27;39135;-88
2024/01/01 15:11:45;;;;;;;6.27;1.50;;;;;;;9.25;79.45;98247.22;5117917;27;41195;-89
2024/01/01 15:14:16;;;;;;;6.63;1.43;;;;;;;9.27;80.80;98266.47;5118210;27;43901;-91
2024/01/01 15:16:49;;;;;;;5.67;1.90;;;;;;;8.96;81.54;98254.41;5117803;27;41505;-90
2024/01/01 15:19:20;;;;;;;4.73;1.53;;;;;;;8.87;81.84;98255.88;5117272;27;40706;-88
2024/01/01 15:21:58;;;;;;;5.17;1.70;;;;;;;8.38;81.82;98199.28;5117937;27;42858;-93
2024/01/01 15:24:33;;;;;;;5.70;1.77;;;;;;;8.67;82.15;98256.28;5134365;27;42229;-92
